This is the latest recevied weather packets stored in our database for station/object DL1VED. If no packets are shown the sender has not sent any weather packets the latest 10 day(s).
| Time | Temp. | Humidity | Pressure | Rain* | Wind** | Luminosity | Snow |
|---|---|---|---|---|---|---|---|
| 1777663753 | 16.11° C | 40% | 1022.2 hPa | 0 mm | - | - | - |
| 1777662853 | 16.67° C | 39% | 1022.2 hPa | 0 mm | - | - | - |
| 1777661953 | 17.22° C | 38% | 1022.1 hPa | 0 mm | - | - | - |
| 1777661053 | 18.33° C | 36% | 1022.1 hPa | 0 mm | - | - | - |
| 1777660153 | 19.44° C | 32% | 1022 hPa | 0 mm | - | - | - |
| 1777659253 | 20.56° C | 28% | 1021.9 hPa | 0 mm | - | - | - |
| 1777658353 | 21.11° C | 26% | 1021.9 hPa | 0 mm | - | - | - |
| 1777657453 | 22.22° C | 23% | 1021.8 hPa | 0 mm | - | - | - |
| 1777656553 | 23.89° C | 20% | 1021.9 hPa | 0 mm | - | - | - |
| 1777655653 | 26.67° C | 16% | 1021.9 hPa | 0 mm | - | - | - |
| 1777654753 | 26.67° C | 16% | 1022 hPa | 0 mm | - | - | - |
| 1777653853 | 26.67° C | 15% | 1022.1 hPa | 0 mm | - | - | - |
| 1777652953 | 26.67° C | 14% | 1022.1 hPa | 0 mm | - | - | - |
| 1777652053 | 26.67° C | 15% | 1022.2 hPa | 0 mm | - | - | - |
| 1777651153 | 26.67° C | 15% | 1022.5 hPa | 0 mm | - | - | - |
| 1777650253 | 25.56° C | 16% | 1022.6 hPa | 0 mm | - | - | - |
| 1777649353 | 25.56° C | 15% | 1022.7 hPa | 0 mm | - | - | - |
| 1777648453 | 25.56° C | 16% | 1022.8 hPa | 0 mm | - | - | - |
| 1777647553 | 25° C | 16% | 1022.9 hPa | 0 mm | - | - | - |
| 1777646653 | 25° C | 16% | 1022.9 hPa | 0 mm | - | - | - |
| 1777645753 | 25° C | 16% | 1023.1 hPa | 0 mm | - | - | - |
| 1777644853 | 24.44° C | 16% | 1023.1 hPa | 0 mm | - | - | - |
| 1777643953 | 23.89° C | 16% | 1023.2 hPa | 0 mm | - | - | - |
| 1777643053 | 24.44° C | 16% | 1023.4 hPa | 0 mm | - | - | - |
| 1777642153 | 24.44° C | 16% | 1023.4 hPa | 0 mm | - | - | - |
* Rain latest hour (hover to see other rain measurements)
** Current wind speed in m/s (hover to see current wind gust speed)